Time;durP1;ratioP1;P1;durP2;ratioP2;P2;SDS_P1;SDS_P2;PMS_P1;PMS_P2;Temp;Humidity;BMP_temperature;BMP_pressure;BME280_temperature;BME280_humidity;BME280_pressure;Samples;Min_cycle;Max_cycle;Signal;HPM_P1;HPM_P2
2023/03/29 00:01:15;;;;;;;3.55;1.17;;;10.10;61.40;;;;;;5103722;28;20043;-73
2023/03/29 00:03:44;;;;;;;0.25;0.25;;;10.00;60.90;;;;;;5103066;28;20105;-73
2023/03/29 00:06:13;;;;;;;0.30;0.30;;;9.90;61.50;;;;;;5090265;28;20115;-74
2023/03/29 00:08:41;;;;;;;0.10;0.10;;;9.90;61.50;;;;;;5088080;28;20024;-73
2023/03/29 00:11:07;;;;;;;0.10;0.10;;;9.90;61.50;;;;;;5100282;28;20020;-76
2023/03/29 00:13:33;;;;;;;0.20;0.20;;;9.80;61.60;;;;;;5096669;28;20188;-73
2023/03/29 00:15:59;;;;;;;0.10;0.10;;;9.70;62.30;;;;;;5101881;28;20140;-73
2023/03/29 00:18:25;;;;;;;0.20;0.20;;;9.70;62.40;;;;;;5086280;28;20024;-72
2023/03/29 00:20:57;;;;;;;0.20;0.20;;;9.70;62.60;;;;;;5103659;28;20024;-73
2023/03/29 00:23:24;;;;;;;0.20;0.20;;;9.70;62.90;;;;;;5079675;28;20135;-72
2023/03/29 00:25:51;;;;;;;0.38;0.38;;;9.60;63.10;;;;;;5098193;28;20063;-74
2023/03/29 00:28:17;;;;;;;0.10;0.10;;;9.70;62.90;;;;;;5093002;28;20046;-76
2023/03/29 00:30:43;;;;;;;0.17;0.17;;;9.70;63.00;;;;;;5090651;28;20085;-73
2023/03/29 00:33:10;;;;;;;0.10;0.10;;;9.60;63.10;;;;;;5095954;28;20373;-74
2023/03/29 00:35:38;;;;;;;0.20;0.20;;;9.70;62.80;;;;;;5098592;28;20049;-73
2023/03/29 00:38:05;;;;;;;0.10;0.10;;;9.90;62.30;;;;;;5094061;28;20032;-75
2023/03/29 00:40:31;;;;;;;0.10;0.10;;;10.00;62.20;;;;;;5091903;28;20098;-74
2023/03/29 00:42:57;;;;;;;0.10;0.10;;;10.00;62.00;;;;;;5088561;28;20044;-75
2023/03/29 00:45:30;;;;;;;0.13;0.13;;;10.00;62.50;;;;;;5093684;28;20035;-73
2023/03/29 00:48:01;;;;;;;0.05;0.05;;;9.80;62.90;;;;;;5098002;28;20491;-72
2023/03/29 00:50:32;;;;;;;0.15;0.15;;;9.80;62.70;;;;;;5097359;28;20050;-73
2023/03/29 00:53:06;;;;;;;0.10;0.10;;;9.80;62.70;;;;;;5101021;28;20380;-73
2023/03/29 00:55:38;;;;;;;0.52;0.52;;;9.70;62.60;;;;;;5093820;28;20021;-72
2023/03/29 00:58:07;;;;;;;0.10;0.10;;;9.80;62.20;;;;;;5098920;28;20023;-73
2023/03/29 01:00:39;;;;;;;0.10;0.10;;;9.80;62.20;;;;;;5078174;28;20032;-74
2023/03/29 01:03:12;;;;;;;0.17;0.17;;;9.80;62.10;;;;;;5094760;28;20032;-73
2023/03/29 01:05:42;;;;;;;0.10;0.10;;;9.80;62.10;;;;;;5098251;28;20047;-76
2023/03/29 01:08:34;;;;;;;0.10;0.10;;;9.80;61.90;;;;;;5099878;28;20474;-73
2023/03/29 01:11:07;;;;;;;0.10;0.10;;;9.80;62.40;;;;;;5100375;28;20805;-74
2023/03/29 01:13:45;;;;;;;0.20;0.20;;;9.90;62.30;;;;;;5095970;28;20079;-76
2023/03/29 01:16:12;;;;;;;0.28;0.28;;;10.00;62.20;;;;;;5091606;28;20463;-73
2023/03/29 01:18:38;;;;;;;0.10;0.10;;;10.10;61.70;;;;;;5085787;28;20023;-73
2023/03/29 01:21:29;;;;;;;0.10;0.10;;;10.10;61.10;;;;;;5074932;28;20030;-72
2023/03/29 01:24:25;;;;;;;0.10;0.10;;;10.20;60.90;;;;;;5096821;28;20034;-74
2023/03/29 01:26:59;;;;;;;0.17;0.17;;;10.30;60.60;;;;;;5093271;28;20068;-73
2023/03/29 01:29:31;;;;;;;0.10;0.10;;;10.30;60.60;;;;;;5075149;28;20035;-73
2023/03/29 01:32:03;;;;;;;0.10;0.10;;;10.30;60.70;;;;;;5090211;28;20055;-72
2023/03/29 01:34:50;;;;;;;0.30;0.30;;;10.20;61.80;;;;;;5093137;28;20044;-73
2023/03/29 01:37:26;;;;;;;0.20;0.20;;;10.10;62.60;;;;;;5087547;28;20111;-72
2023/03/29 01:39:52;;;;;;;0.10;0.10;;;10.00;62.60;;;;;;5092847;28;20028;-73
2023/03/29 01:42:30;;;;;;;0.10;0.10;;;10.00;62.90;;;;;;5088406;28;20030;-75
2023/03/29 01:45:28;;;;;;;0.10;0.10;;;10.00;62.80;;;;;;5087187;28;20032;-73
2023/03/29 01:48:09;;;;;;;0.10;0.10;;;9.90;62.80;;;;;;5089015;28;20074;-72
2023/03/29 01:50:41;;;;;;;0.10;0.10;;;9.90;63.20;;;;;;5089765;28;20027;-74
2023/03/29 01:53:21;;;;;;;0.20;0.20;;;9.90;63.70;;;;;;5091490;28;20034;-72
2023/03/29 01:55:52;;;;;;;0.10;0.10;;;9.80;63.80;;;;;;5072083;28;20440;-73
2023/03/29 01:58:20;;;;;;;0.20;0.20;;;9.70;64.80;;;;;;5088166;28;20028;-75
2023/03/29 02:00:48;;;;;;;0.20;0.20;;;9.70;65.20;;;;;;5078990;28;20035;-72
2023/03/29 02:03:16;;;;;;;0.10;0.10;;;9.70;65.40;;;;;;5100022;28;20593;-72
2023/03/29 02:05:43;;;;;;;0.45;0.28;;;9.80;64.70;;;;;;5075621;28;21234;-72
2023/03/29 02:08:12;;;;;;;0.10;0.10;;;9.80;64.50;;;;;;5097858;28;20045;-72
2023/03/29 02:10:38;;;;;;;0.10;0.10;;;9.80;65.30;;;;;;5099347;28;20020;-72
2023/03/29 02:13:05;;;;;;;0.10;0.10;;;9.80;65.10;;;;;;5096522;28;20024;-73
2023/03/29 02:15:30;;;;;;;0.17;0.17;;;9.90;64.60;;;;;;5088247;28;20039;-74
2023/03/29 02:17:56;;;;;;;0.43;0.32;;;9.80;64.20;;;;;;5096646;28;20024;-73
2023/03/29 02:20:41;;;;;;;0.43;0.43;;;9.80;64.80;;;;;;5096614;28;20153;-71
2023/03/29 02:23:33;;;;;;;0.10;0.10;;;9.70;65.50;;;;;;5100482;28;20035;-75
2023/03/29 02:26:00;;;;;;;0.10;0.10;;;9.60;65.30;;;;;;5084260;28;20035;-73
2023/03/29 02:28:28;;;;;;;0.10;0.10;;;9.50;66.00;;;;;;5089626;28;20026;-71
2023/03/29 02:31:01;;;;;;;0.22;0.22;;;9.40;66.20;;;;;;5096500;28;20080;-73
2023/03/29 02:33:40;;;;;;;0.10;0.10;;;9.60;66.20;;;;;;5078241;28;20055;-72
2023/03/29 02:36:26;;;;;;;0.10;0.10;;;9.60;66.90;;;;;;5090641;28;20035;-72
2023/03/29 02:38:53;;;;;;;0.13;0.13;;;9.50;66.90;;;;;;5095803;28;20027;-71
2023/03/29 02:41:19;;;;;;;0.10;0.10;;;9.60;65.20;;;;;;5090065;28;20031;-74
2023/03/29 02:43:47;;;;;;;0.10;0.10;;;9.70;64.90;;;;;;5092959;28;20089;-73
2023/03/29 02:46:15;;;;;;;0.10;0.10;;;9.70;64.60;;;;;;5070507;28;20110;-73
2023/03/29 02:48:42;;;;;;;0.30;0.30;;;9.60;66.10;;;;;;5088165;28;20077;-73
2023/03/29 02:51:20;;;;;;;0.10;0.10;;;9.60;66.10;;;;;;5088302;28;20055;-72
2023/03/29 02:54:01;;;;;;;0.45;0.45;;;9.50;65.90;;;;;;5070890;28;20103;-72
2023/03/29 02:56:28;;;;;;;0.10;0.10;;;9.50;66.60;;;;;;5091576;28;20493;-74
2023/03/29 02:58:53;;;;;;;5.50;1.07;;;9.50;66.50;;;;;;5088423;28;20031;-74
2023/03/29 03:01:19;;;;;;;0.20;0.20;;;9.50;66.50;;;;;;5096501;28;20578;-73
2023/03/29 03:03:46;;;;;;;0.30;0.30;;;9.60;66.00;;;;;;5091231;28;20035;-74
2023/03/29 03:06:12;;;;;;;0.20;0.20;;;9.60;65.70;;;;;;5093647;28;20036;-73
2023/03/29 03:08:38;;;;;;;0.10;0.10;;;9.60;66.10;;;;;;5095089;28;20036;-75
2023/03/29 03:11:04;;;;;;;0.38;0.30;;;9.60;65.90;;;;;;5082953;28;20023;-72
2023/03/29 03:13:30;;;;;;;0.20;0.20;;;9.50;66.30;;;;;;5094950;28;20557;-72
2023/03/29 03:15:56;;;;;;;0.10;0.10;;;9.30;66.90;;;;;;5097570;28;20028;-72
2023/03/29 03:18:22;;;;;;;0.20;0.20;;;9.40;66.70;;;;;;5093188;28;20032;-71
2023/03/29 03:21:00;;;;;;;0.20;0.20;;;9.30;67.30;;;;;;5094780;28;20114;-73
2023/03/29 03:23:26;;;;;;;0.10;0.10;;;9.30;67.30;;;;;;5080026;28;20038;-71
2023/03/29 03:25:52;;;;;;;0.33;0.33;;;9.20;67.60;;;;;;5074033;28;20028;-71
2023/03/29 03:28:18;;;;;;;0.20;0.20;;;9.20;66.90;;;;;;5097257;28;20028;-73
2023/03/29 03:30:44;;;;;;;0.10;0.10;;;9.30;66.80;;;;;;5070935;28;20141;-72
2023/03/29 03:33:10;;;;;;;0.30;0.30;;;9.40;66.40;;;;;;5096740;28;20047;-73
2023/03/29 03:35:37;;;;;;;0.10;0.10;;;9.30;66.10;;;;;;5092220;28;20395;-72
2023/03/29 03:38:03;;;;;;;;;;;9.40;65.90;;;;;;5078929;28;20063;-72
2023/03/29 03:40:28;;;;;;;0.20;0.20;;;9.40;66.20;;;;;;5095521;28;20006;-72
2023/03/29 03:42:54;;;;;;;0.10;0.10;;;9.40;67.00;;;;;;5098547;28;20043;-72
2023/03/29 03:45:20;;;;;;;0.10;0.10;;;9.30;67.30;;;;;;5073706;28;20023;-72
2023/03/29 03:47:46;;;;;;;0.10;0.10;;;9.20;68.00;;;;;;5082792;28;20078;-72
2023/03/29 03:50:12;;;;;;;0.40;0.40;;;9.20;67.70;;;;;;5097227;28;20032;-71
2023/03/29 03:52:38;;;;;;;0.28;0.28;;;9.30;67.30;;;;;;5104436;28;20031;-74
2023/03/29 03:55:04;;;;;;;0.10;0.10;;;9.20;67.80;;;;;;5097831;28;20191;-72
2023/03/29 03:57:31;;;;;;;0.20;0.20;;;9.30;67.40;;;;;;5086740;28;20596;-73
2023/03/29 03:59:57;;;;;;;0.25;0.25;;;9.30;67.50;;;;;;5106012;28;20854;-73
2023/03/29 04:02:23;;;;;;;0.20;0.20;;;9.30;67.60;;;;;;5098938;28;20035;-74
2023/03/29 04:04:49;;;;;;;0.35;0.35;;;9.20;67.60;;;;;;5103129;28;20385;-73
2023/03/29 04:07:16;;;;;;;0.50;0.50;;;9.20;67.90;;;;;;5102050;28;20047;-73
2023/03/29 04:09:42;;;;;;;0.10;0.10;;;9.20;67.10;;;;;;5106185;28;20032;-73
2023/03/29 04:12:09;;;;;;;0.10;0.10;;;9.10;67.50;;;;;;5104392;28;20035;-75
2023/03/29 04:14:36;;;;;;;0.10;0.10;;;9.10;67.50;;;;;;5086762;28;20464;-73
2023/03/29 04:17:02;;;;;;;2.28;1.60;;;9.20;67.20;;;;;;5103121;28;20213;-71
2023/03/29 04:19:27;;;;;;;0.10;0.10;;;9.10;67.20;;;;;;5103868;28;20501;-72
2023/03/29 04:21:53;;;;;;;1.00;1.00;;;9.20;66.80;;;;;;5083285;28;20028;-71
2023/03/29 04:24:18;;;;;;;0.10;0.10;;;9.20;66.70;;;;;;5102708;28;20129;-74
2023/03/29 04:26:46;;;;;;;0.40;0.40;;;9.20;66.80;;;;;;5101298;28;20031;-72
2023/03/29 04:29:12;;;;;;;0.10;0.10;;;9.10;67.20;;;;;;5098450;28;20624;-71
2023/03/29 04:31:38;;;;;;;0.10;0.10;;;9.10;67.50;;;;;;5075386;28;20059;-74
2023/03/29 04:34:03;;;;;;;0.10;0.10;;;9.10;67.60;;;;;;5103945;28;20051;-72
2023/03/29 04:36:29;;;;;;;0.30;0.30;;;9.10;67.50;;;;;;5099846;28;20067;-74
2023/03/29 04:38:55;;;;;;;0.10;0.10;;;9.20;66.90;;;;;;5101912;28;20019;-74
2023/03/29 04:41:21;;;;;;;0.75;0.75;;;9.30;66.40;;;;;;5092488;28;20025;-71
2023/03/29 04:43:47;;;;;;;0.25;0.25;;;9.40;65.90;;;;;;5099479;28;20081;-73
2023/03/29 04:46:13;;;;;;;0.15;0.15;;;9.30;65.90;;;;;;5096952;28;20032;-71
2023/03/29 04:48:39;;;;;;;0.10;0.10;;;9.30;66.00;;;;;;5103874;28;20078;-72
2023/03/29 04:51:05;;;;;;;0.32;0.32;;;9.30;66.10;;;;;;5102064;28;20037;-71
2023/03/29 04:53:31;;;;;;;0.10;0.10;;;9.20;66.80;;;;;;5092189;28;20063;-72
2023/03/29 04:55:58;;;;;;;0.10;0.10;;;9.20;66.90;;;;;;5090617;28;20039;-72
2023/03/29 04:58:26;;;;;;;0.10;0.10;;;9.20;67.10;;;;;;5102337;28;20032;-71
2023/03/29 05:00:58;;;;;;;0.45;0.45;;;9.20;66.90;;;;;;5103355;28;20038;-72
2023/03/29 05:03:24;;;;;;;1.40;0.55;;;9.20;67.00;;;;;;5091281;28;20059;-72
2023/03/29 05:05:50;;;;;;;0.30;0.30;;;9.40;66.00;;;;;;5093186;28;20498;-73
2023/03/29 05:08:16;;;;;;;0.10;0.10;;;9.30;66.70;;;;;;5090442;28;20056;-73
2023/03/29 05:10:42;;;;;;;0.20;0.20;;;9.40;66.00;;;;;;5090761;28;20099;-73
2023/03/29 05:13:09;;;;;;;0.10;0.10;;;9.20;66.60;;;;;;5096389;28;20443;-73
2023/03/29 05:15:35;;;;;;;0.70;0.70;;;9.00;67.60;;;;;;5089001;28;20056;-72
2023/03/29 05:18:01;;;;;;;0.10;0.10;;;8.90;69.10;;;;;;5092287;28;20047;-72
2023/03/29 05:20:27;;;;;;;0.00;0.00;;;8.80;69.00;;;;;;5093239;28;20021;-73
2023/03/29 05:22:53;;;;;;;0.10;0.10;;;8.80;68.90;;;;;;5071725;28;20139;-74
2023/03/29 05:25:19;;;;;;;1.83;0.87;;;8.80;69.20;;;;;;5071206;28;20132;-74
2023/03/29 05:27:45;;;;;;;0.10;0.10;;;8.90;68.60;;;;;;5089675;28;20854;-71
2023/03/29 05:30:14;;;;;;;0.10;0.10;;;8.90;68.90;;;;;;5092506;28;20027;-72
2023/03/29 05:32:40;;;;;;;0.30;0.30;;;8.80;70.30;;;;;;5090726;28;20109;-74
2023/03/29 05:35:06;;;;;;;0.13;0.13;;;8.70;70.50;;;;;;5081707;28;20701;-72
2023/03/29 05:37:33;;;;;;;0.40;0.40;;;8.70;70.00;;;;;;5092625;28;20032;-71
2023/03/29 05:39:59;;;;;;;0.10;0.10;;;8.50;70.30;;;;;;5094425;28;20020;-73
2023/03/29 05:42:25;;;;;;;0.25;0.20;;;8.50;70.30;;;;;;5081816;28;20463;-72
2023/03/29 05:44:50;;;;;;;0.10;0.10;;;8.50;71.20;;;;;;5102548;28;20024;-73
2023/03/29 05:47:16;;;;;;;0.20;0.20;;;8.30;71.90;;;;;;5102560;28;20080;-73
2023/03/29 05:49:42;;;;;;;0.10;0.10;;;8.20;72.90;;;;;;5075798;28;20099;-73
2023/03/29 05:52:08;;;;;;;0.10;0.10;;;8.20;72.90;;;;;;5094343;28;20032;-72
2023/03/29 05:54:33;;;;;;;0.10;0.10;;;8.30;73.20;;;;;;5100473;28;20015;-73
2023/03/29 05:56:59;;;;;;;0.10;0.10;;;8.40;72.20;;;;;;5103140;28;20035;-72
2023/03/29 05:59:27;;;;;;;0.30;0.30;;;8.60;70.20;;;;;;5093314;28;20202;-73
2023/03/29 06:01:53;;;;;;;0.10;0.10;;;8.70;69.40;;;;;;5099766;28;20557;-73
2023/03/29 06:04:19;;;;;;;0.10;0.10;;;8.70;69.30;;;;;;5097214;28;20028;-71
2023/03/29 06:06:45;;;;;;;0.20;0.20;;;8.70;70.00;;;;;;5102627;28;20035;-73
2023/03/29 06:09:11;;;;;;;0.10;0.10;;;8.80;68.90;;;;;;5101295;28;20054;-73
2023/03/29 06:11:37;;;;;;;0.10;0.10;;;8.90;68.70;;;;;;5103675;28;20561;-74
2023/03/29 06:14:03;;;;;;;0.10;0.10;;;9.00;67.80;;;;;;5092305;28;20023;-73
2023/03/29 06:16:29;;;;;;;0.10;0.10;;;9.20;66.30;;;;;;5103340;28;20028;-72
2023/03/29 06:18:55;;;;;;;0.10;0.10;;;9.40;66.30;;;;;;5098447;28;20096;-73
2023/03/29 06:21:21;;;;;;;0.25;0.25;;;9.40;66.20;;;;;;5090241;28;20043;-73
2023/03/29 06:23:47;;;;;;;0.17;0.17;;;9.60;64.80;;;;;;5096625;28;20860;-76
2023/03/29 06:26:13;;;;;;;0.20;0.20;;;9.80;64.40;;;;;;5096248;27;20031;-73
2023/03/29 06:28:39;;;;;;;0.10;0.10;;;10.00;63.20;;;;;;5102579;28;20026;-74
2023/03/29 06:31:05;;;;;;;4.88;0.55;;;10.10;62.70;;;;;;5101611;28;20428;-75
2023/03/29 06:33:31;;;;;;;0.57;0.57;;;10.20;63.90;;;;;;5102976;28;20035;-74
2023/03/29 06:35:57;;;;;;;0.10;0.10;;;10.30;63.60;;;;;;5082564;28;20570;-73
2023/03/29 06:38:25;;;;;;;0.08;0.08;;;10.50;63.00;;;;;;5101526;28;20046;-73
2023/03/29 06:40:51;;;;;;;0.10;0.10;;;10.40;63.10;;;;;;5101251;28;20115;-73
2023/03/29 06:43:17;;;;;;;0.10;0.10;;;10.50;63.60;;;;;;5099817;28;20019;-75
2023/03/29 06:45:43;;;;;;;0.17;0.17;;;10.60;63.30;;;;;;5095667;28;20032;-74
2023/03/29 06:48:09;;;;;;;0.60;0.60;;;10.60;64.50;;;;;;5099475;28;20070;-74
2023/03/29 06:50:35;;;;;;;0.10;0.10;;;10.60;62.80;;;;;;5097580;28;20073;-76
2023/03/29 06:53:01;;;;;;;0.10;0.10;;;10.50;63.60;;;;;;5102733;28;20023;-73
2023/03/29 06:55:27;;;;;;;0.10;0.10;;;10.80;64.10;;;;;;5092988;28;20028;-75
2023/03/29 06:57:53;;;;;;;0.10;0.10;;;11.10;62.60;;;;;;5082646;28;20062;-74
2023/03/29 07:00:26;;;;;;;0.00;0.00;;;11.10;62.90;;;;;;5077349;28;20434;-74
2023/03/29 07:02:57;;;;;;;0.40;0.40;;;10.90;64.70;;;;;;5094781;28;20596;-74
2023/03/29 07:05:26;;;;;;;0.10;0.10;;;10.90;64.90;;;;;;5096071;28;20412;-74
2023/03/29 07:07:55;;;;;;;0.20;0.20;;;11.10;62.90;;;;;;5074081;28;20031;-74
2023/03/29 07:10:22;;;;;;;0.13;0.13;;;11.50;63.50;;;;;;5083723;28;20020;-74
2023/03/29 07:12:50;;;;;;;0.10;0.10;;;12.40;61.70;;;;;;5091434;28;20372;-75
2023/03/29 07:15:16;;;;;;;0.10;0.10;;;12.20;62.30;;;;;;5101809;28;20121;-75
2023/03/29 07:17:42;;;;;;;0.20;0.20;;;12.30;62.70;;;;;;5090965;28;20039;-73
2023/03/29 07:20:12;;;;;;;0.10;0.10;;;13.30;60.60;;;;;;5093864;28;20056;-75
2023/03/29 07:22:42;;;;;;;0.08;0.08;;;13.40;58.70;;;;;;5084783;28;20031;-75
2023/03/29 07:25:09;;;;;;;0.10;0.10;;;13.80;60.00;;;;;;5087441;28;20062;-74
2023/03/29 07:27:39;;;;;;;0.00;0.00;;;14.70;59.50;;;;;;5101794;28;20037;-75
2023/03/29 07:30:09;;;;;;;0.00;0.00;;;15.30;57.80;;;;;;5089371;28;20031;-78
2023/03/29 07:32:36;;;;;;;0.52;0.40;;;15.90;58.20;;;;;;5100807;28;20106;-75
2023/03/29 07:35:04;;;;;;;0.00;0.00;;;15.10;55.90;;;;;;5101182;28;20020;-74
2023/03/29 07:37:31;;;;;;;0.17;0.17;;;14.10;59.80;;;;;;5081902;28;20160;-74
2023/03/29 07:39:57;;;;;;;0.00;0.00;;;13.40;61.00;;;;;;5100194;28;20026;-74
2023/03/29 07:42:22;;;;;;;0.10;0.10;;;13.20;63.70;;;;;;5101430;28;20399;-75
2023/03/29 07:44:48;;;;;;;0.00;0.00;;;13.90;60.60;;;;;;5083422;28;20028;-74
2023/03/29 07:47:14;;;;;;;0.10;0.10;;;14.90;59.40;;;;;;5100036;28;20588;-75
2023/03/29 07:49:41;;;;;;;0.13;0.13;;;15.50;57.20;;;;;;5097130;28;20068;-76
2023/03/29 07:52:07;;;;;;;0.30;0.30;;;15.30;57.40;;;;;;5100499;28;20399;-74
2023/03/29 07:54:33;;;;;;;0.20;0.20;;;15.40;57.30;;;;;;5097487;28;20047;-76
2023/03/29 07:56:59;;;;;;;4.53;1.10;;;15.30;56.40;;;;;;5101569;28;20023;-74
2023/03/29 07:59:26;;;;;;;0.03;0.03;;;15.20;56.30;;;;;;5096422;28;20867;-75
2023/03/29 08:01:52;;;;;;;0.20;0.20;;;16.10;56.70;;;;;;5092715;28;20107;-74
2023/03/29 08:04:18;;;;;;;0.10;0.10;;;16.00;54.20;;;;;;5091241;28;20062;-75
2023/03/29 08:06:44;;;;;;;0.00;0.00;;;16.00;53.80;;;;;;5094358;28;20699;-75
2023/03/29 08:09:10;;;;;;;0.10;0.10;;;16.20;53.40;;;;;;5093755;28;20027;-76
2023/03/29 08:11:38;;;;;;;0.00;0.00;;;16.60;55.20;;;;;;5074744;28;20040;-75
2023/03/29 08:14:04;;;;;;;0.00;0.00;;;16.60;53.80;;;;;;5090278;28;20124;-73
2023/03/29 08:16:30;;;;;;;0.00;0.00;;;16.60;53.80;;;;;;5092436;28;20020;-75
2023/03/29 08:18:56;;;;;;;0.23;0.23;;;16.40;55.00;;;;;;5092158;28;20050;-73
2023/03/29 08:21:22;;;;;;;0.57;0.40;;;16.50;56.30;;;;;;5088340;28;20044;-74
2023/03/29 08:23:47;;;;;;;1.00;0.30;;;16.40;58.40;;;;;;5087720;28;20051;-74
2023/03/29 08:26:14;;;;;;;0.00;0.00;;;17.80;53.90;;;;;;5082114;28;20032;-74
2023/03/29 08:28:40;;;;;;;0.00;0.00;;;18.60;53.60;;;;;;5104876;28;20027;-75
2023/03/29 08:31:08;;;;;;;0.20;0.20;;;18.70;51.00;;;;;;5086959;28;20572;-74
2023/03/29 08:33:35;;;;;;;0.10;0.10;;;17.80;51.40;;;;;;5104201;28;21201;-76
2023/03/29 08:36:00;;;;;;;0.10;0.10;;;17.90;53.10;;;;;;5103891;28;20157;-75
2023/03/29 08:38:26;;;;;;;0.00;0.00;;;18.20;52.70;;;;;;5105463;28;20491;-74
2023/03/29 08:40:52;;;;;;;0.00;0.00;;;17.90;53.10;;;;;;5102426;28;20028;-74
2023/03/29 08:43:34;;;;;;;1.20;0.53;;;18.10;55.40;;;;;;5101796;28;20035;-74
2023/03/29 08:46:44;;;;;;;0.25;0.25;;;19.50;52.20;;;;;;5100767;28;20028;-76
2023/03/29 08:49:11;;;;;;;0.00;0.00;;;20.10;50.20;;;;;;5064675;28;20053;-75
2023/03/29 08:51:39;;;;;;;;;;;21.70;50.30;;;;;;5105117;28;20024;-74
2023/03/29 08:54:11;;;;;;;0.20;0.20;;;22.30;47.80;;;;;;5104606;28;19908;-75
2023/03/29 08:56:39;;;;;;;0.00;0.00;;;21.80;46.80;;;;;;5097309;28;20030;-74
2023/03/29 08:59:36;;;;;;;0.20;0.20;;;21.00;48.40;;;;;;5098130;28;20024;-74
2023/03/29 09:02:08;;;;;;;0.00;0.00;;;19.70;48.40;;;;;;5095720;28;20550;-74
2023/03/29 09:04:38;;;;;;;0.00;0.00;;;20.50;51.50;;;;;;5101029;28;20043;-74
2023/03/29 09:07:08;;;;;;;0.10;0.10;;;20.00;49.70;;;;;;5090033;28;20028;-74
2023/03/29 09:09:34;;;;;;;0.17;0.10;;;20.40;50.30;;;;;;5093350;28;20031;-75
2023/03/29 09:12:04;;;;;;;;;;;22.40;49.60;;;;;;5097735;27;20027;-76
2023/03/29 09:14:46;;;;;;;0.35;0.22;;;22.00;50.00;;;;;;5099373;28;20438;-77
2023/03/29 09:17:15;;;;;;;0.35;0.35;;;22.30;49.20;;;;;;5097124;28;20016;-74
2023/03/29 09:20:11;;;;;;;0.32;0.32;;;22.60;48.80;;;;;;5100422;28;20028;-75
2023/03/29 09:22:36;;;;;;;;;;;22.50;50.10;;;;;;5100042;28;20893;-74
2023/03/29 09:25:24;;;;;;;0.20;0.20;;;23.70;49.00;;;;;;5089086;28;19912;-75
2023/03/29 09:27:58;;;;;;;0.00;0.00;;;24.30;47.30;;;;;;5088514;28;20024;-74
2023/03/29 09:30:27;;;;;;;0.20;0.20;;;24.70;45.60;;;;;;5104541;28;20057;-74
2023/03/29 09:33:00;;;;;;;0.00;0.00;;;24.50;43.80;;;;;;5102691;28;20048;-74
2023/03/29 09:35:25;;;;;;;0.57;0.30;;;24.10;43.90;;;;;;5103456;28;20023;-76
2023/03/29 09:37:53;;;;;;;0.00;0.00;;;23.80;42.20;;;;;;5102559;28;20049;-74
2023/03/29 09:40:42;;;;;;;0.20;0.20;;;24.10;38.10;;;;;;5083555;28;20124;-76
2023/03/29 09:43:11;;;;;;;0.00;0.00;;;23.40;36.70;;;;;;5085669;28;20027;-75
2023/03/29 09:45:38;;;;;;;0.00;0.00;;;23.70;37.50;;;;;;5100552;28;20020;-74
2023/03/29 09:48:12;;;;;;;0.05;0.05;;;23.40;39.30;;;;;;5103338;28;20498;-75
2023/03/29 09:50:47;;;;;;;0.00;0.00;;;23.50;37.10;;;;;;5099085;28;20034;-76
2023/03/29 09:53:14;;;;;;;0.05;0.05;;;23.10;37.20;;;;;;5104027;28;20027;-74
2023/03/29 09:55:42;;;;;;;0.00;0.00;;;23.70;38.20;;;;;;5098398;28;20053;-75
2023/03/29 09:58:22;;;;;;;0.00;0.00;;;24.70;36.80;;;;;;5103222;28;20097;-75
2023/03/29 10:00:48;;;;;;;0.10;0.10;;;24.80;37.30;;;;;;5090618;28;20028;-74
2023/03/29 10:03:26;;;;;;;0.10;0.10;;;25.40;36.20;;;;;;5094821;28;20426;-75
2023/03/29 10:05:54;;;;;;;0.28;0.28;;;24.90;37.40;;;;;;5097937;28;20060;-74
2023/03/29 10:08:34;;;;;;;0.52;0.22;;;24.10;38.40;;;;;;5094428;28;20035;-75
2023/03/29 10:11:08;;;;;;;0.00;0.00;;;24.20;38.50;;;;;;5102594;28;20023;-74
2023/03/29 10:13:35;;;;;;;0.00;0.00;;;24.00;37.10;;;;;;5084407;28;20068;-75
2023/03/29 10:16:06;;;;;;;0.20;0.20;;;24.00;37.40;;;;;;5093600;28;20023;-74
2023/03/29 10:18:37;;;;;;;0.00;0.00;;;24.00;39.00;;;;;;5093780;28;20047;-74
2023/03/29 10:21:04;;;;;;;0.00;0.00;;;23.70;39.20;;;;;;5091766;28;20566;-74
2023/03/29 10:23:35;;;;;;;;;;;23.70;39.30;;;;;;5103808;28;20019;-74
2023/03/29 10:26:06;;;;;;;0.00;0.00;;;23.40;42.00;;;;;;5100024;28;20413;-76
2023/03/29 10:28:35;;;;;;;0.10;0.10;;;23.00;39.10;;;;;;5072181;28;20028;-74
2023/03/29 10:31:02;;;;;;;0.10;0.10;;;23.20;38.70;;;;;;5101456;28;20024;-76
2023/03/29 10:33:34;;;;;;;0.13;0.13;;;23.30;40.60;;;;;;5091206;28;20447;-74
2023/03/29 10:36:03;;;;;;;0.13;0.10;;;23.20;37.80;;;;;;5098710;28;20034;-76
2023/03/29 10:38:29;;;;;;;0.00;0.00;;;23.10;38.60;;;;;;5092591;28;20028;-74
2023/03/29 10:41:04;;;;;;;0.20;0.20;;;23.20;36.90;;;;;;5099173;28;20034;-74
2023/03/29 10:43:37;;;;;;;0.00;0.00;;;23.10;38.20;;;;;;5093833;28;20024;-76
2023/03/29 10:46:13;;;;;;;0.00;0.00;;;23.10;36.70;;;;;;5079423;28;20581;-74
2023/03/29 10:48:45;;;;;;;0.00;0.00;;;23.20;37.70;;;;;;5103072;28;20126;-75
2023/03/29 10:51:13;;;;;;;0.08;0.08;;;23.30;39.30;;;;;;5098215;28;20122;-75
2023/03/29 10:53:39;;;;;;;0.00;0.00;;;23.40;37.90;;;;;;5101960;28;20111;-74
2023/03/29 10:56:35;;;;;;;0.00;0.00;;;23.30;39.90;;;;;;5098650;28;20126;-75
2023/03/29 10:59:13;;;;;;;0.38;0.22;;;23.10;38.50;;;;;;5099860;28;20334;-76
2023/03/29 11:02:08;;;;;;;0.00;0.00;;;23.10;38.50;;;;;;5091161;28;20612;-75
2023/03/29 11:05:28;;;;;;;0.00;0.00;;;23.20;39.60;;;;;;5051759;28;20039;-75
2023/03/29 11:08:13;;;;;;;0.20;0.20;;;23.10;37.90;;;;;;5036623;28;20033;-74
2023/03/29 11:11:17;;;;;;;0.05;0.05;;;23.30;38.60;;;;;;5037919;28;20029;-74
2023/03/29 11:14:01;;;;;;;0.00;0.00;;;23.20;42.30;;;;;;5025424;28;20069;-75
2023/03/29 11:16:51;;;;;;;0.00;0.00;;;23.30;39.40;;;;;;5095872;28;20063;-75
2023/03/29 11:19:44;;;;;;;0.00;0.00;;;23.40;41.70;;;;;;5087776;28;20097;-74
2023/03/29 11:22:18;;;;;;;0.73;0.32;;;23.60;40.80;;;;;;5089991;28;20051;-75
2023/03/29 11:24:58;;;;;;;0.40;0.08;;;23.60;39.10;;;;;;5098888;28;20038;-74
2023/03/29 11:27:52;;;;;;;0.15;0.15;;;23.80;38.60;;;;;;5096139;28;20073;-75
2023/03/29 11:30:24;;;;;;;0.00;0.00;;;23.80;39.10;;;;;;5089975;28;20020;-74
2023/03/29 11:32:50;;;;;;;0.00;0.00;;;23.70;38.80;;;;;;5093371;28;20048;-75
2023/03/29 11:35:47;;;;;;;0.17;0.17;;;23.70;40.30;;;;;;5094576;28;20027;-75
2023/03/29 11:38:25;;;;;;;0.22;0.22;;;23.60;40.20;;;;;;5096217;28;20077;-74
2023/03/29 11:41:12;;;;;;;0.55;0.55;;;23.70;40.40;;;;;;5090537;28;20085;-76
2023/03/29 11:43:44;;;;;;;0.17;0.17;;;23.20;43.30;;;;;;5089825;28;20798;-74
2023/03/29 11:46:28;;;;;;;0.10;0.10;;;23.00;44.30;;;;;;5096765;28;20102;-75
2023/03/29 11:49:28;;;;;;;0.00;0.00;;;22.80;44.70;;;;;;5084207;28;20031;-74
2023/03/29 11:52:12;;;;;;;0.00;0.00;;;22.90;43.60;;;;;;5089607;28;20024;-74
2023/03/29 11:54:47;;;;;;;0.08;0.05;;;23.30;43.10;;;;;;5091522;28;20062;-76
2023/03/29 11:57:35;;;;;;;0.60;0.35;;;23.40;46.40;;;;;;5098644;28;20036;-75
2023/03/29 12:00:11;;;;;;;0.08;0.08;;;23.40;41.20;;;;;;5099033;28;20065;-76
2023/03/29 12:03:15;;;;;;;0.00;0.00;;;23.30;41.20;;;;;;5092511;28;20040;-74
2023/03/29 12:05:47;;;;;;;0.22;0.22;;;23.30;42.10;;;;;;5098649;28;20043;-76
2023/03/29 12:08:30;;;;;;;0.00;0.00;;;23.40;43.20;;;;;;5081214;28;20130;-75
2023/03/29 12:11:06;;;;;;;0.20;0.20;;;23.50;43.80;;;;;;5098842;28;20051;-74
2023/03/29 12:13:39;;;;;;;0.32;0.22;;;23.50;47.50;;;;;;5103229;28;20437;-74
2023/03/29 12:16:31;;;;;;;0.03;0.03;;;23.50;47.00;;;;;;5100026;28;20028;-75
2023/03/29 12:19:03;;;;;;;0.60;0.43;;;23.50;46.40;;;;;;5098858;28;20020;-74
2023/03/29 12:21:31;;;;;;;0.88;0.32;;;23.40;47.60;;;;;;5101613;28;20043;-75
2023/03/29 12:23:57;;;;;;;2.08;0.65;;;23.30;44.60;;;;;;5095103;28;20395;-75
2023/03/29 12:26:26;;;;;;;;;;;23.50;45.00;;;;;;5085896;28;20038;-75
2023/03/29 12:29:04;;;;;;;0.70;0.70;;;23.50;49.20;;;;;;5089423;28;19915;-76
2023/03/29 12:31:49;;;;;;;0.00;0.00;;;23.30;43.90;;;;;;5096421;28;20475;-75
2023/03/29 12:34:36;;;;;;;3.05;0.50;;;23.20;47.10;;;;;;5089132;28;20113;-74
2023/03/29 12:37:57;;;;;;;0.28;0.28;;;23.30;45.80;;;;;;5089130;28;20024;-75
2023/03/29 12:40:26;;;;;;;1.05;0.65;;;23.40;46.20;;;;;;5089156;28;20131;-76
2023/03/29 12:43:02;;;;;;;0.52;0.52;;;23.50;45.10;;;;;;5092019;28;20115;-74
2023/03/29 12:45:41;;;;;;;0.13;0.13;;;23.40;43.80;;;;;;5088962;28;20034;-77
2023/03/29 12:48:15;;;;;;;0.00;0.00;;;23.40;44.50;;;;;;5100417;28;20477;-76
2023/03/29 12:51:03;;;;;;;0.65;0.38;;;23.50;45.40;;;;;;5103843;28;20135;-75
2023/03/29 12:53:34;;;;;;;0.28;0.28;;;23.40;47.30;;;;;;5093251;28;20031;-76
2023/03/29 12:55:59;;;;;;;0.10;0.10;;;23.10;45.90;;;;;;5084524;28;20024;-75
2023/03/29 12:58:27;;;;;;;0.00;0.00;;;23.10;49.00;;;;;;5103787;28;20530;-74
2023/03/29 13:01:08;;;;;;;0.52;0.43;;;23.10;45.10;;;;;;5095992;28;20028;-75
2023/03/29 13:03:48;;;;;;;0.13;0.13;;;23.10;44.90;;;;;;5101483;28;20062;-76
2023/03/29 13:06:34;;;;;;;1.25;0.43;;;23.00;44.90;;;;;;5095650;28;20062;-74
2023/03/29 13:09:21;;;;;;;0.00;0.00;;;22.90;44.20;;;;;;5097153;28;20019;-75
2023/03/29 13:12:03;;;;;;;0.00;0.00;;;23.10;46.20;;;;;;5097894;28;20024;-76
2023/03/29 13:14:33;;;;;;;1.40;0.70;;;23.20;45.20;;;;;;5087265;28;20024;-75